Time;durP1;ratioP1;P1;durP2;ratioP2;P2;SDS_P1;SDS_P2;PMS_P1;PMS_P2;Temp;Humidity;BMP_temperature;BMP_pressure;BME280_temperature;BME280_humidity;BME280_pressure;Samples;Min_cycle;Max_cycle;Signal;HPM_P1;HPM_P2
2021/04/21 00:01:39;;;;;;;5.97;3.40;;;8.60;74.90;;;;;;3557251;40;20033;-68
2021/04/21 00:04:06;;;;;;;4.82;3.42;;;8.60;75.70;;;;;;3557622;40;20029;-68
2021/04/21 00:06:34;;;;;;;9.35;3.65;;;8.50;76.40;;;;;;3557547;40;20025;-67
2021/04/21 00:09:01;;;;;;;6.65;3.63;;;8.40;76.80;;;;;;3557527;40;20589;-67
2021/04/21 00:11:29;;;;;;;8.32;3.63;;;8.40;77.60;;;;;;3557428;40;20040;-68
2021/04/21 00:13:55;;;;;;;5.47;3.30;;;8.50;77.40;;;;;;3557410;40;20029;-64
2021/04/21 00:16:21;;;;;;;6.93;3.45;;;8.50;77.60;;;;;;3557579;40;20127;-65
2021/04/21 00:18:47;;;;;;;7.45;3.50;;;8.60;76.80;;;;;;3558026;40;20034;-65
2021/04/21 00:21:13;;;;;;;8.23;3.60;;;8.60;76.20;;;;;;3557378;40;20029;-65
2021/04/21 00:23:41;;;;;;;8.00;3.25;;;8.60;76.00;;;;;;3548742;40;20139;-65
2021/04/21 00:26:17;;;;;;;5.95;3.63;;;8.60;75.70;;;;;;3557823;40;20033;-68
2021/04/21 00:28:44;;;;;;;7.05;3.53;;;8.70;75.70;;;;;;3557276;40;20075;-66
2021/04/21 00:31:12;;;;;;;5.32;3.70;;;8.60;75.30;;;;;;3558164;40;20061;-64
2021/04/21 00:33:39;;;;;;;5.68;3.22;;;8.60;75.10;;;;;;3564563;40;20038;-66
2021/04/21 00:36:06;;;;;;;5.32;3.38;;;8.60;75.60;;;;;;3557734;40;20029;-65
2021/04/21 00:38:35;;;;;;;7.30;3.80;;;8.50;75.30;;;;;;3557484;40;20021;-65
2021/04/21 00:41:13;;;;;;;5.18;3.72;;;8.50;75.10;;;;;;3557554;40;20033;-65
2021/04/21 00:43:51;;;;;;;7.22;3.85;;;8.40;75.00;;;;;;3556561;40;20025;-65
2021/04/21 00:46:24;;;;;;;8.80;4.18;;;8.30;75.10;;;;;;3556812;40;20038;-66
2021/04/21 00:49:20;;;;;;;6.63;3.42;;;8.20;76.00;;;;;;3557848;40;20053;-65
2021/04/21 00:52:09;;;;;;;11.18;3.85;;;8.00;77.40;;;;;;3557417;40;20405;-65
2021/04/21 00:54:58;;;;;;;6.35;3.60;;;8.00;78.10;;;;;;3556235;40;20060;-65
2021/04/21 00:57:45;;;;;;;7.22;3.78;;;7.90;78.80;;;;;;3557451;40;20037;-65
2021/04/21 01:00:18;;;;;;;9.70;3.92;;;7.90;79.50;;;;;;3557433;40;20196;-65
2021/04/21 01:03:06;;;;;;;8.60;4.15;;;7.90;79.90;;;;;;3555847;40;20520;-65
2021/04/21 01:05:42;;;;;;;9.38;4.18;;;8.00;79.90;;;;;;3557480;40;20040;-64
2021/04/21 01:08:22;;;;;;;7.32;4.20;;;8.00;80.10;;;;;;3557605;40;20303;-65
2021/04/21 01:11:08;;;;;;;7.13;3.63;;;8.00;80.40;;;;;;3557926;40;20045;-66
2021/04/21 01:13:43;;;;;;;7.30;3.63;;;8.00;80.00;;;;;;3549478;40;20056;-60
2021/04/21 01:16:11;;;;;;;6.53;3.45;;;8.00;79.00;;;;;;3551195;40;20038;-61
2021/04/21 01:18:39;;;;;;;5.40;3.55;;;8.00;79.10;;;;;;3559547;40;20028;-60
2021/04/21 01:21:28;;;;;;;8.65;4.05;;;7.90;79.00;;;;;;3558497;40;20049;-60
2021/04/21 01:24:39;;;;;;;7.28;3.17;;;7.90;78.20;;;;;;3561322;40;20399;-60
2021/04/21 01:27:11;;;;;;;4.50;2.92;;;7.80;77.00;;;;;;3559275;40;20037;-63
2021/04/21 01:29:52;;;;;;;9.32;3.85;;;7.70;78.30;;;;;;3556676;40;20048;-59
2021/04/21 01:32:26;;;;;;;8.38;3.70;;;7.60;78.00;;;;;;3558771;40;20095;-59
2021/04/21 01:34:54;;;;;;;4.93;3.38;;;7.60;77.90;;;;;;3557630;40;20049;-60
2021/04/21 01:37:29;;;;;;;9.25;4.07;;;7.50;79.30;;;;;;3558826;40;20048;-61
2021/04/21 01:40:02;;;;;;;8.75;4.40;;;7.40;80.50;;;;;;3558531;40;20038;-60
2021/04/21 01:42:32;;;;;;;8.32;4.05;;;7.40;81.60;;;;;;3558556;40;20324;-60
2021/04/21 01:44:59;;;;;;;12.20;4.72;;;7.40;82.70;;;;;;3558712;40;20030;-60
2021/04/21 01:47:25;;;;;;;6.70;3.75;;;7.40;83.10;;;;;;3558269;40;20033;-60
2021/04/21 01:50:05;;;;;;;7.93;4.50;;;7.40;83.10;;;;;;3558626;40;20426;-60
2021/04/21 01:52:37;;;;;;;9.05;4.32;;;7.40;82.90;;;;;;3558283;40;20045;-60
2021/04/21 01:55:23;;;;;;;8.55;3.75;;;7.40;82.80;;;;;;3558566;40;20115;-60
2021/04/21 01:58:15;;;;;;;8.40;3.70;;;7.40;82.50;;;;;;3558705;40;20411;-60
2021/04/21 02:00:47;;;;;;;5.57;3.17;;;7.40;81.70;;;;;;3558174;40;20029;-60
2021/04/21 02:03:33;;;;;;;7.47;3.38;;;7.40;81.50;;;;;;3559003;40;20116;-60
2021/04/21 02:06:36;;;;;;;5.68;3.60;;;7.30;81.90;;;;;;3548652;40;20102;-61
2021/04/21 02:09:47;;;;;;;5.20;3.97;;;7.30;82.10;;;;;;3559131;40;20053;-60
2021/04/21 02:12:44;;;;;;;5.20;3.40;;;7.30;82.10;;;;;;3558660;40;20033;-60
2021/04/21 02:15:13;;;;;;;10.35;4.43;;;7.20;82.30;;;;;;3558841;40;20105;-60
2021/04/21 02:17:46;;;;;;;10.73;3.85;;;7.10;82.50;;;;;;3557439;40;20034;-60
2021/04/21 02:20:29;;;;;;;8.88;3.80;;;7.10;82.50;;;;;;3558534;40;20022;-63
2021/04/21 02:23:11;;;;;;;9.10;4.18;;;7.20;82.80;;;;;;3558715;40;20038;-60
2021/04/21 02:25:46;;;;;;;6.88;3.90;;;7.10;82.80;;;;;;3558428;40;20549;-60
2021/04/21 02:28:38;;;;;;;8.18;3.53;;;7.10;83.30;;;;;;3558966;40;20301;-60
2021/04/21 02:31:25;;;;;;;8.02;4.07;;;7.10;83.10;;;;;;3558214;40;20041;-60
2021/04/21 02:34:14;;;;;;;9.20;3.90;;;7.10;83.30;;;;;;3558791;40;20033;-60
2021/04/21 02:37:06;;;;;;;7.68;3.97;;;7.00;83.40;;;;;;3557315;40;20102;-60
2021/04/21 02:40:00;;;;;;;8.32;4.07;;;7.00;83.50;;;;;;3559713;40;20713;-63
2021/04/21 02:42:34;;;;;;;7.22;3.95;;;6.90;83.80;;;;;;3558837;40;20728;-60
2021/04/21 02:45:08;;;;;;;9.40;4.30;;;6.80;84.10;;;;;;3557641;40;20442;-60
2021/04/21 02:47:59;;;;;;;7.55;3.97;;;6.90;84.20;;;;;;3558313;40;20033;-60
2021/04/21 02:50:27;;;;;;;6.05;3.80;;;6.90;83.80;;;;;;3558482;40;20038;-60
2021/04/21 02:53:22;;;;;;;8.15;4.47;;;6.80;83.60;;;;;;3558376;40;20041;-60
2021/04/21 02:55:56;;;;;;;8.05;4.28;;;6.90;83.40;;;;;;3564398;40;20832;-60
2021/04/21 02:58:45;;;;;;;7.53;4.03;;;6.80;83.20;;;;;;3558424;40;20092;-60
2021/04/21 03:01:45;;;;;;;9.00;3.90;;;6.80;83.10;;;;;;3558221;40;20087;-60
2021/04/21 03:04:38;;;;;;;7.60;3.65;;;6.80;82.80;;;;;;3565072;40;20055;-60
2021/04/21 03:07:08;;;;;;;8.18;3.67;;;6.80;82.50;;;;;;3558891;40;20045;-60
2021/04/21 03:09:42;;;;;;;6.75;3.63;;;6.70;82.00;;;;;;3556812;40;20041;-60
2021/04/21 03:12:10;;;;;;;9.70;3.90;;;6.70;82.70;;;;;;3558652;40;20282;-60
2021/04/21 03:14:38;;;;;;;7.47;3.63;;;6.70;82.90;;;;;;3558023;40;20033;-60
2021/04/21 03:17:10;;;;;;;10.52;4.45;;;6.70;82.90;;;;;;3558676;40;20104;-60
2021/04/21 03:19:45;;;;;;;6.88;3.58;;;6.70;82.80;;;;;;3556977;40;20041;-60
2021/04/21 03:22:14;;;;;;;6.32;3.47;;;6.60;82.80;;;;;;3558368;40;20026;-60
2021/04/21 03:24:47;;;;;;;8.15;3.75;;;6.70;82.60;;;;;;3558309;40;20026;-60
2021/04/21 03:27:14;;;;;;;5.93;3.38;;;6.70;82.40;;;;;;3557858;40;20041;-60
2021/04/21 03:29:43;;;;;;;5.68;3.17;;;6.60;82.30;;;;;;3557303;40;20037;-59
2021/04/21 03:32:13;;;;;;;9.50;3.47;;;6.60;82.20;;;;;;3558015;40;20045;-60
2021/04/21 03:34:41;;;;;;;6.22;3.85;;;6.50;82.00;;;;;;3558013;40;20037;-62
2021/04/21 03:37:27;;;;;;;6.85;3.90;;;6.50;82.10;;;;;;3559125;40;20628;-62
2021/04/21 03:39:55;;;;;;;8.27;3.60;;;6.50;82.40;;;;;;3559438;40;20030;-60
2021/04/21 03:42:20;;;;;;;8.15;3.60;;;6.40;82.70;;;;;;3559820;40;20017;-60
2021/04/21 03:44:47;;;;;;;6.07;4.22;;;6.40;82.60;;;;;;3558412;40;20052;-60
2021/04/21 03:47:13;;;;;;;13.18;4.25;;;6.40;82.40;;;;;;3558252;40;20056;-60
2021/04/21 03:49:41;;;;;;;8.88;4.03;;;6.30;82.80;;;;;;3557772;40;20037;-60
2021/04/21 03:52:10;;;;;;;8.35;3.72;;;6.30;82.70;;;;;;3558075;40;20052;-63
2021/04/21 03:54:37;;;;;;;6.50;3.38;;;6.30;83.10;;;;;;3548882;40;20030;-63
2021/04/21 03:57:03;;;;;;;11.15;4.50;;;6.30;83.00;;;;;;3557681;40;20049;-63
2021/04/21 03:59:32;;;;;;;7.50;3.90;;;6.20;82.90;;;;;;3557280;40;20045;-60
2021/04/21 04:02:03;;;;;;;7.97;3.63;;;6.20;82.90;;;;;;3556822;40;20033;-60
2021/04/21 04:04:31;;;;;;;5.43;3.47;;;6.20;83.10;;;;;;3558267;40;20041;-60
2021/04/21 04:07:05;;;;;;;8.48;3.58;;;6.20;83.30;;;;;;3556935;40;20030;-60
2021/04/21 04:09:34;;;;;;;9.23;4.28;;;6.20;83.40;;;;;;3556128;40;20554;-67
2021/04/21 04:12:04;;;;;;;7.97;3.90;;;6.20;83.40;;;;;;3556803;40;20032;-63
2021/04/21 04:14:33;;;;;;;11.80;4.25;;;6.20;82.80;;;;;;3557253;40;20081;-63
2021/04/21 04:17:01;;;;;;;6.78;3.83;;;6.20;82.90;;;;;;3554663;40;20056;-64
2021/04/21 04:19:30;;;;;;;8.23;4.32;;;6.10;83.20;;;;;;3557350;40;20037;-59
2021/04/21 04:22:07;;;;;;;10.30;4.80;;;6.10;83.60;;;;;;3557958;40;20081;-62
2021/04/21 04:25:06;;;;;;;11.15;4.88;;;6.10;83.60;;;;;;3556421;40;20030;-64
2021/04/21 04:27:37;;;;;;;8.30;4.45;;;6.10;84.10;;;;;;3556915;40;20077;-64
2021/04/21 04:30:03;;;;;;;11.18;4.85;;;6.10;83.40;;;;;;3556294;40;20050;-64
2021/04/21 04:32:29;;;;;;;11.05;4.70;;;6.10;83.20;;;;;;3557560;40;20065;-64
2021/04/21 04:34:57;;;;;;;10.98;5.25;;;6.10;83.50;;;;;;3556352;40;20036;-63
2021/04/21 04:37:26;;;;;;;10.05;5.25;;;6.20;83.80;;;;;;3557631;40;20397;-63
2021/04/21 04:39:53;;;;;;;7.32;4.47;;;6.20;84.30;;;;;;3557230;40;20045;-63
2021/04/21 04:42:19;;;;;;;7.28;4.57;;;6.20;84.50;;;;;;3558866;40;20396;-63
2021/04/21 04:44:47;;;;;;;7.05;4.50;;;6.20;84.70;;;;;;3559640;40;20033;-65
2021/04/21 04:47:29;;;;;;;9.68;4.55;;;6.20;84.80;;;;;;3558565;40;20038;-64
2021/04/21 04:50:08;;;;;;;10.60;4.65;;;6.30;84.60;;;;;;3559259;40;20030;-62
2021/04/21 04:52:40;;;;;;;9.50;4.43;;;6.30;84.30;;;;;;3559920;40;20159;-63
2021/04/21 04:55:08;;;;;;;9.13;4.40;;;6.40;84.10;;;;;;3558592;40;20041;-64
2021/04/21 04:57:34;;;;;;;8.48;4.57;;;6.50;84.20;;;;;;3560026;40;20314;-63
2021/04/21 05:00:04;;;;;;;15.82;5.65;;;6.50;84.10;;;;;;3559020;40;20033;-63
2021/04/21 05:02:34;;;;;;;15.93;5.97;;;6.60;84.20;;;;;;3559970;40;20095;-64
2021/04/21 05:05:04;;;;;;;17.70;5.50;;;6.60;83.80;;;;;;3558190;40;20053;-64
2021/04/21 05:07:42;;;;;;;14.55;5.93;;;6.70;83.10;;;;;;3559669;40;20750;-63
2021/04/21 05:10:16;;;;;;;13.90;5.38;;;6.70;83.30;;;;;;3558068;40;20037;-63
2021/04/21 05:12:44;;;;;;;8.73;4.95;;;6.80;83.20;;;;;;3559075;40;20134;-63
2021/04/21 05:15:39;;;;;;;9.68;4.82;;;6.90;83.50;;;;;;3559028;40;20493;-63
2021/04/21 05:18:05;;;;;;;11.65;5.28;;;7.00;83.80;;;;;;3558289;40;20142;-63
2021/04/21 05:20:51;;;;;;;7.32;4.85;;;7.10;83.80;;;;;;3558976;40;20134;-63
2021/04/21 05:23:17;;;;;;;;;;;7.30;83.80;;;;;;3558757;40;20051;-63
2021/04/21 05:26:07;;;;;;;12.57;4.90;;;7.40;82.70;;;;;;3559567;40;19950;-63
2021/04/21 05:29:05;;;;;;;12.55;5.95;;;7.60;81.70;;;;;;3558753;40;20160;-63
2021/04/21 05:32:18;;;;;;;15.00;6.75;;;8.00;80.60;;;;;;3557488;40;20751;-63
2021/04/21 05:35:17;;;;;;;13.52;6.68;;;8.50;78.50;;;;;;3557685;40;20049;-61
2021/04/21 05:38:20;;;;;;;10.77;4.95;;;9.10;76.30;;;;;;3551236;40;20105;-64
2021/04/21 05:41:00;;;;;;;9.00;4.07;;;9.80;74.10;;;;;;3558118;40;20034;-63
2021/04/21 05:43:56;;;;;;;10.90;5.20;;;10.80;71.00;;;;;;3558480;40;20183;-64
2021/04/21 05:46:40;;;;;;;11.90;4.30;;;11.80;65.90;;;;;;3558920;40;20029;-62
2021/04/21 05:49:31;;;;;;;8.60;4.63;;;12.40;62.60;;;;;;3558826;40;20029;-63
2021/04/21 05:52:38;;;;;;;7.97;4.50;;;13.10;59.50;;;;;;3558273;40;20045;-60
2021/04/21 05:55:19;;;;;;;;;;;13.50;58.10;;;;;;3559696;40;20053;-63
2021/04/21 05:58:03;;;;;;;13.20;5.45;;;13.80;56.90;;;;;;3558810;40;19940;-63
2021/04/21 06:00:59;;;;;;;11.43;5.20;;;14.10;55.30;;;;;;3552915;40;20046;-61
2021/04/21 06:03:26;;;;;;;9.68;4.40;;;14.50;54.50;;;;;;3559116;40;20665;-63
2021/04/21 06:06:04;;;;;;;12.05;5.32;;;14.70;53.90;;;;;;3558617;40;20034;-62
2021/04/21 06:08:31;;;;;;;11.88;5.53;;;15.00;53.20;;;;;;3558564;40;20040;-63
2021/04/21 06:10:57;;;;;;;11.90;5.68;;;15.10;52.60;;;;;;3558389;40;20045;-63
2021/04/21 06:13:34;;;;;;;9.07;5.10;;;15.30;53.10;;;;;;3558066;40;20379;-64
2021/04/21 06:16:00;;;;;;;;;;;15.30;50.40;;;;;;3558874;40;20116;-61
2021/04/21 06:18:26;;;;;;;9.50;5.13;;;15.50;49.50;;;;;;3558708;40;19940;-61
2021/04/21 06:20:55;;;;;;;14.30;5.07;;;15.80;49.60;;;;;;3558594;40;20036;-61
2021/04/21 06:23:23;;;;;;;8.80;4.72;;;16.20;48.30;;;;;;3557462;40;20122;-63
2021/04/21 06:26:01;;;;;;;10.40;5.53;;;16.60;48.30;;;;;;3558890;40;20067;-63
2021/04/21 06:28:27;;;;;;;12.27;5.43;;;16.90;47.20;;;;;;3559220;40;20037;-63
2021/04/21 06:31:12;;;;;;;13.00;5.50;;;17.20;46.10;;;;;;3557884;40;20037;-61
2021/04/21 06:33:42;;;;;;;15.70;6.03;;;17.30;45.50;;;;;;3558100;40;20046;-63
2021/04/21 06:36:11;;;;;;;10.73;5.18;;;17.30;45.40;;;;;;3557330;40;20461;-64
2021/04/21 06:38:38;;;;;;;13.93;6.32;;;17.50;44.70;;;;;;3558848;40;20040;-63
2021/04/21 06:41:04;;;;;;;10.80;5.43;;;17.70;44.70;;;;;;3558631;40;20092;-61
2021/04/21 06:43:36;;;;;;;12.70;6.60;;;18.10;44.10;;;;;;3558823;40;20632;-61
2021/04/21 06:46:07;;;;;;;11.52;5.65;;;18.30;43.80;;;;;;3557224;40;20053;-61
2021/04/21 06:48:35;;;;;;;12.55;5.43;;;18.40;43.20;;;;;;3558845;40;20022;-61
2021/04/21 06:51:14;;;;;;;9.10;4.88;;;18.50;42.80;;;;;;3558122;40;20799;-61
2021/04/21 06:53:41;;;;;;;10.98;6.20;;;18.60;44.00;;;;;;3558495;40;20045;-61
2021/04/21 06:56:07;;;;;;;14.55;6.38;;;18.60;44.30;;;;;;3557441;40;20041;-61
2021/04/21 06:58:35;;;;;;;11.88;6.32;;;19.00;43.30;;;;;;3558030;40;20081;-61
2021/04/21 07:01:13;;;;;;;13.18;5.85;;;19.20;42.20;;;;;;3558228;40;20037;-61
2021/04/21 07:03:40;;;;;;;10.23;5.18;;;19.00;42.80;;;;;;3557038;40;20042;-61
2021/04/21 07:06:07;;;;;;;9.50;5.38;;;19.00;41.20;;;;;;3557726;40;20142;-61
2021/04/21 07:08:40;;;;;;;7.78;5.00;;;18.90;42.20;;;;;;3558769;40;20418;-61
2021/04/21 07:11:09;;;;;;;13.73;6.03;;;18.60;42.60;;;;;;3557499;40;20033;-61
2021/04/21 07:13:44;;;;;;;10.38;5.90;;;18.20;43.60;;;;;;3558306;40;20030;-61
2021/04/21 07:16:19;;;;;;;13.63;5.60;;;17.80;44.40;;;;;;3559830;40;20034;-62
2021/04/21 07:18:55;;;;;;;12.07;5.78;;;17.70;44.50;;;;;;3557881;40;20037;-61
2021/04/21 07:21:21;;;;;;;11.73;6.10;;;17.80;44.60;;;;;;3557887;40;20029;-61
2021/04/21 07:23:51;;;;;;;9.50;5.47;;;17.90;44.60;;;;;;3558059;40;20029;-61
2021/04/21 07:26:18;;;;;;;13.85;7.40;;;17.90;44.30;;;;;;3558002;40;20030;-61
2021/04/21 07:28:45;;;;;;;17.08;9.32;;;18.10;44.90;;;;;;3558539;40;20696;-61
2021/04/21 07:31:19;;;;;;;8.13;5.00;;;18.70;43.60;;;;;;3556362;40;20138;-64
2021/04/21 07:33:47;;;;;;;7.80;5.35;;;19.40;42.10;;;;;;3558492;40;20030;-61
2021/04/21 07:36:17;;;;;;;8.18;4.45;;;19.60;41.40;;;;;;3557967;40;20029;-61
2021/04/21 07:38:47;;;;;;;9.65;5.03;;;19.60;42.00;;;;;;3558661;40;20069;-63
2021/04/21 07:41:15;;;;;;;8.43;5.07;;;19.40;41.60;;;;;;3558207;40;20022;-61
2021/04/21 07:43:46;;;;;;;12.27;5.30;;;19.30;42.40;;;;;;3558355;40;20044;-61
2021/04/21 07:46:14;;;;;;;9.10;5.10;;;19.30;41.90;;;;;;3557756;40;20091;-60
2021/04/21 07:48:42;;;;;;;9.70;5.13;;;19.60;42.10;;;;;;3556204;40;20038;-62
2021/04/21 07:51:19;;;;;;;8.55;4.95;;;19.90;40.70;;;;;;3557768;40;20134;-63
2021/04/21 07:53:53;;;;;;;9.38;5.57;;;20.20;41.20;;;;;;3558170;40;20041;-60
2021/04/21 07:56:23;;;;;;;13.23;5.45;;;20.40;41.30;;;;;;3557235;40;20040;-61
2021/04/21 07:58:51;;;;;;;7.85;4.55;;;20.50;40.20;;;;;;3558740;40;20434;-67
2021/04/21 08:01:35;;;;;;;12.77;6.32;;;20.30;40.10;;;;;;3556330;40;20346;-61
2021/04/21 08:04:17;;;;;;;12.07;5.10;;;20.10;38.90;;;;;;3557166;40;20029;-61
2021/04/21 08:06:43;;;;;;;11.98;6.22;;;20.00;41.30;;;;;;3557528;40;20142;-61
2021/04/21 08:09:09;;;;;;;12.57;5.65;;;19.90;40.50;;;;;;3557995;40;20034;-62
2021/04/21 08:11:35;;;;;;;8.07;5.88;;;19.70;40.90;;;;;;3556206;40;20126;-62
2021/04/21 08:14:01;;;;;;;12.75;5.78;;;19.80;41.20;;;;;;3555302;40;20081;-61
2021/04/21 08:16:30;;;;;;;8.68;4.78;;;19.80;41.30;;;;;;3557509;40;20053;-61
2021/04/21 08:19:00;;;;;;;11.45;5.38;;;20.10;41.80;;;;;;3558210;40;20033;-61
2021/04/21 08:21:45;;;;;;;12.10;5.40;;;20.20;40.00;;;;;;3557943;40;20034;-61
2021/04/21 08:24:18;;;;;;;10.07;5.65;;;20.10;38.30;;;;;;3556155;40;20430;-61
2021/04/21 08:26:47;;;;;;;8.20;5.10;;;20.00;40.00;;;;;;3557000;40;20036;-61
2021/04/21 08:29:14;;;;;;;15.50;5.88;;;20.30;39.10;;;;;;3558106;40;20034;-61
2021/04/21 08:31:45;;;;;;;9.55;5.25;;;20.30;39.40;;;;;;3557655;40;20052;-61
2021/04/21 08:34:12;;;;;;;9.52;4.93;;;20.20;38.90;;;;;;3557949;40;20029;-61
2021/04/21 08:36:37;;;;;;;10.18;4.72;;;20.30;40.00;;;;;;3557965;40;20042;-62
2021/04/21 08:39:04;;;;;;;12.02;5.32;;;20.30;38.60;;;;;;3558239;40;20500;-61
2021/04/21 08:41:36;;;;;;;12.70;5.95;;;20.50;38.70;;;;;;3557669;40;20124;-61
2021/04/21 08:44:02;;;;;;;6.32;4.82;;;20.80;37.30;;;;;;3556035;40;20752;-60
2021/04/21 08:46:29;;;;;;;9.77;4.40;;;20.80;35.30;;;;;;3556669;40;20413;-61
2021/04/21 08:48:57;;;;;;;7.90;4.25;;;20.90;36.60;;;;;;3558096;40;20413;-62
2021/04/21 08:51:24;;;;;;;7.28;4.30;;;21.30;36.50;;;;;;3557407;40;20601;-64
2021/04/21 08:53:52;;;;;;;8.80;5.55;;;21.40;35.50;;;;;;3557834;40;20025;-61
2021/04/21 08:56:21;;;;;;;8.75;5.25;;;21.30;35.30;;;;;;3557667;40;20036;-62
2021/04/21 08:58:49;;;;;;;8.98;5.05;;;21.30;35.10;;;;;;3557221;40;20779;-61
2021/04/21 09:01:15;;;;;;;6.40;4.72;;;21.30;37.60;;;;;;3556085;40;20040;-62
2021/04/21 09:03:47;;;;;;;10.23;4.90;;;21.50;35.70;;;;;;3557105;40;20747;-62
2021/04/21 09:06:18;;;;;;;12.30;4.75;;;21.70;37.30;;;;;;3556388;40;20037;-62
2021/04/21 09:08:50;;;;;;;9.35;4.47;;;22.30;36.10;;;;;;3555086;40;20350;-61
2021/04/21 09:11:17;;;;;;;6.55;4.10;;;22.60;35.70;;;;;;3556810;40;20309;-62
2021/04/21 09:13:43;;;;;;;8.98;5.90;;;22.70;34.80;;;;;;3557280;40;20044;-62
2021/04/21 09:16:08;;;;;;;8.23;4.47;;;22.70;35.70;;;;;;3555262;40;20041;-62
2021/04/21 09:18:35;;;;;;;11.73;7.45;;;22.80;35.00;;;;;;3555642;40;20041;-62
2021/04/21 09:21:03;;;;;;;5.78;3.97;;;22.90;34.20;;;;;;3557495;40;20415;-62
2021/04/21 09:23:41;;;;;;;4.97;3.33;;;23.20;33.70;;;;;;3557463;40;20040;-63
2021/04/21 09:26:22;;;;;;;10.68;5.18;;;23.50;33.50;;;;;;3556910;40;20033;-61
2021/04/21 09:28:49;;;;;;;7.72;3.50;;;23.90;32.40;;;;;;3558218;40;20205;-62
2021/04/21 09:31:23;;;;;;;8.15;3.83;;;23.80;33.10;;;;;;3558969;40;20331;-61
2021/04/21 09:34:13;;;;;;;9.75;7.13;;;23.70;32.60;;;;;;3557472;40;20037;-61
2021/04/21 09:36:44;;;;;;;7.85;4.22;;;23.20;32.80;;;;;;3557571;40;20069;-62
2021/04/21 09:39:12;;;;;;;5.00;3.40;;;22.60;35.80;;;;;;3558600;40;20036;-62
2021/04/21 09:41:39;;;;;;;7.45;4.57;;;22.60;35.00;;;;;;3558817;40;20037;-62
2021/04/21 09:44:19;;;;;;;8.18;4.88;;;22.60;35.80;;;;;;3558978;40;20029;-62
2021/04/21 09:46:47;;;;;;;15.95;4.47;;;22.40;35.40;;;;;;3558396;40;20038;-63
2021/04/21 09:49:36;;;;;;;6.50;3.50;;;22.10;35.40;;;;;;3558833;40;20022;-63
2021/04/21 09:52:22;;;;;;;6.40;3.47;;;21.90;36.30;;;;;;3558734;40;20151;-63
2021/04/21 09:54:49;;;;;;;8.27;5.05;;;22.10;36.80;;;;;;3558649;40;20069;-63
2021/04/21 09:57:20;;;;;;;11.73;6.30;;;22.40;34.40;;;;;;3558309;40;20037;-63
2021/04/21 10:00:06;;;;;;;6.20;3.92;;;22.70;35.10;;;;;;3557531;40;20024;-63
2021/04/21 10:02:39;;;;;;;8.30;3.90;;;23.00;35.40;;;;;;3557548;40;20041;-62
2021/04/21 10:05:25;;;;;;;9.50;4.20;;;22.90;34.60;;;;;;3558765;40;20126;-65
2021/04/21 10:08:15;;;;;;;5.75;4.10;;;23.20;35.00;;;;;;3558916;40;20382;-64
2021/04/21 10:10:44;;;;;;;5.85;3.28;;;23.70;32.10;;;;;;3556849;40;20063;-64
2021/04/21 10:13:19;;;;;;;11.60;4.57;;;23.70;32.00;;;;;;3559334;40;20029;-64
2021/04/21 10:15:46;;;;;;;9.95;3.72;;;24.00;31.80;;;;;;3559676;40;20021;-66
2021/04/21 10:18:13;;;;;;;8.35;4.40;;;23.90;31.60;;;;;;3559731;40;20030;-64
2021/04/21 10:20:41;;;;;;;7.40;4.07;;;23.80;31.50;;;;;;3558885;40;20582;-64
2021/04/21 10:23:07;;;;;;;6.60;4.82;;;23.50;31.80;;;;;;3558906;40;20469;-62
2021/04/21 10:25:34;;;;;;;5.32;4.07;;;22.70;32.70;;;;;;3564556;40;20044;-62
2021/04/21 10:28:00;;;;;;;5.15;4.10;;;22.20;33.80;;;;;;3558891;40;20041;-64
2021/04/21 10:30:26;;;;;;;6.40;3.95;;;22.20;33.20;;;;;;3559035;40;20017;-65
2021/04/21 10:32:53;;;;;;;4.53;3.20;;;22.40;34.90;;;;;;3558348;40;20037;-67
2021/04/21 10:35:19;;;;;;;4.70;3.17;;;22.50;31.90;;;;;;3558230;40;20085;-64
2021/04/21 10:37:45;;;;;;;5.72;3.10;;;22.20;32.70;;;;;;3558248;40;20406;-64
2021/04/21 10:40:21;;;;;;;4.68;3.33;;;21.80;34.20;;;;;;3558494;40;20025;-65
2021/04/21 10:42:49;;;;;;;5.00;3.50;;;21.40;34.10;;;;;;3558436;40;20041;-65
2021/04/21 10:45:17;;;;;;;10.07;4.95;;;21.10;35.00;;;;;;3558801;40;20034;-65
2021/04/21 10:47:49;;;;;;;10.30;4.88;;;20.90;33.50;;;;;;3558605;40;20035;-64
2021/04/21 10:50:45;;;;;;;7.53;4.43;;;20.50;33.70;;;;;;3558705;40;20037;-65
2021/04/21 10:53:28;;;;;;;8.48;3.95;;;20.30;35.90;;;;;;3559208;40;20177;-65
2021/04/21 10:55:55;;;;;;;8.15;3.92;;;20.00;34.80;;;;;;3558452;40;20041;-64
2021/04/21 10:58:21;;;;;;;5.25;3.42;;;19.90;36.50;;;;;;3557100;40;20288;-64
2021/04/21 11:00:48;;;;;;;7.18;2.95;;;20.10;35.10;;;;;;3558556;40;20041;-64
2021/04/21 11:03:26;;;;;;;7.35;2.97;;;20.70;36.20;;;;;;3558725;40;20029;-65
2021/04/21 11:06:00;;;;;;;9.68;3.45;;;21.20;32.10;;;;;;3557869;40;20073;-65
2021/04/21 11:08:30;;;;;;;6.55;3.03;;;21.20;32.90;;;;;;3558317;40;20524;-65
2021/04/21 11:11:02;;;;;;;7.43;3.35;;;21.00;33.80;;;;;;3557423;40;20045;-65
2021/04/21 11:13:34;;;;;;;4.00;2.95;;;20.70;33.30;;;;;;3558337;40;20029;-65
2021/04/21 11:16:01;;;;;;;5.10;2.13;;;20.40;34.50;;;;;;3554786;40;20037;-64
2021/04/21 11:18:31;;;;;;;5.13;2.45;;;20.20;33.20;;;;;;3558399;40;20049;-63
2021/04/21 11:21:08;;;;;;;5.80;3.38;;;20.00;30.00;;;;;;3557607;40;20454;-64
2021/04/21 11:24:05;;;;;;;7.50;4.28;;;19.90;33.60;;;;;;3557665;40;20037;-64
2021/04/21 11:26:35;;;;;;;;;;;20.00;33.30;;;;;;3558919;40;20026;-63
2021/04/21 11:29:18;;;;;;;7.22;2.80;;;19.90;34.40;;;;;;3558368;40;20722;-64
2021/04/21 11:31:51;;;;;;;8.48;3.78;;;19.90;35.10;;;;;;3557887;40;20045;-64
2021/04/21 11:34:17;;;;;;;5.63;2.50;;;20.10;36.00;;;;;;3558513;40;20094;-64
2021/04/21 11:36:50;;;;;;;6.20;2.53;;;20.30;35.30;;;;;;3557529;40;20323;-64
2021/04/21 11:39:46;;;;;;;6.13;3.30;;;20.40;35.60;;;;;;3557971;40;20037;-64
2021/04/21 11:42:33;;;;;;;5.28;2.40;;;20.60;32.70;;;;;;3558578;40;20041;-64
2021/04/21 11:45:11;;;;;;;5.05;2.83;;;20.70;34.40;;;;;;3558285;40;20034;-64
2021/04/21 11:47:41;;;;;;;6.55;2.80;;;20.90;32.80;;;;;;3556805;40;20037;-64
2021/04/21 11:50:18;;;;;;;4.75;2.83;;;20.90;33.50;;;;;;3557620;40;20037;-64
2021/04/21 11:52:56;;;;;;;4.88;2.40;;;20.90;31.80;;;;;;3558365;40;20035;-63
2021/04/21 11:55:27;;;;;;;6.25;2.90;;;20.80;31.30;;;;;;3558399;40;20034;-63
2021/04/21 11:57:54;;;;;;;7.68;2.50;;;20.70;32.40;;;;;;3558403;40;20641;-63
2021/04/21 12:00:26;;;;;;;7.80;2.38;;;20.70;33.60;;;;;;3558222;40;20029;-63
2021/04/21 12:02:52;;;;;;;3.92;1.92;;;20.80;33.50;;;;;;3557702;40;20124;-63
2021/04/21 12:05:29;;;;;;;4.40;1.88;;;20.70;31.30;;;;;;3557045;40;20395;-63
2021/04/21 12:07:56;;;;;;;6.28;3.35;;;20.50;32.20;;;;;;3556781;40;20064;-63
2021/04/21 12:10:26;;;;;;;5.00;2.30;;;20.20;32.20;;;;;;3557445;40;20708;-63
2021/04/21 12:12:51;;;;;;;5.28;2.28;;;20.00;34.20;;;;;;3558087;40;20184;-63
2021/04/21 12:15:19;;;;;;;8.68;2.80;;;19.90;33.80;;;;;;3558068;40;20414;-63
2021/04/21 12:17:56;;;;;;;6.97;2.92;;;19.90;32.00;;;;;;3557472;40;20126;-63
2021/04/21 12:20:28;;;;;;;5.53;2.85;;;20.00;33.50;;;;;;3558698;40;20457;-63
2021/04/21 12:22:54;;;;;;;9.95;3.25;;;20.00;35.20;;;;;;3558250;40;20041;-63
2021/04/21 12:25:23;;;;;;;7.47;3.35;;;20.20;32.60;;;;;;3558858;40;20030;-63
2021/04/21 12:27:50;;;;;;;4.35;3.33;;;20.20;34.00;;;;;;3558787;40;20026;-63
2021/04/21 12:30:18;;;;;;;6.47;2.28;;;20.10;33.20;;;;;;3557681;40;20017;-63
2021/04/21 12:32:46;;;;;;;5.38;2.70;;;20.00;32.20;;;;;;3556967;40;20030;-64
2021/04/21 12:35:13;;;;;;;3.17;2.13;;;19.90;34.50;;;;;;3557762;40;20037;-63
2021/04/21 12:37:39;;;;;;;3.00;2.30;;;19.80;33.20;;;;;;3558364;40;20037;-63
2021/04/21 12:40:23;;;;;;;3.80;2.25;;;19.70;33.20;;;;;;3557529;40;20089;-64
2021/04/21 12:42:50;;;;;;;5.05;3.20;;;19.70;34.30;;;;;;3558607;40;20030;-63
2021/04/21 12:45:31;;;;;;;6.25;2.50;;;19.70;33.20;;;;;;3557788;40;20466;-64
2021/04/21 12:47:57;;;;;;;3.83;2.55;;;19.90;33.60;;;;;;3557142;40;20040;-64
2021/04/21 12:50:31;;;;;;;2.88;2.20;;;20.10;33.80;;;;;;3557188;40;20049;-63
2021/04/21 12:53:11;;;;;;;4.10;2.80;;;20.30;36.00;;;;;;3557186;40;20029;-64
2021/04/21 12:55:36;;;;;;;5.18;2.40;;;20.50;36.00;;;;;;3556916;40;20041;-64
2021/04/21 12:58:02;;;;;;;8.85;2.50;;;20.60;36.20;;;;;;3556926;40;20886;-64
2021/04/21 13:00:29;;;;;;;3.65;2.05;;;20.50;35.80;;;;;;3556765;40;20034;-64
2021/04/21 13:02:54;;;;;;;4.07;2.45;;;20.40;36.00;;;;;;3557902;40;20029;-64
2021/04/21 13:05:43;;;;;;;7.03;2.35;;;20.20;35.70;;;;;;3556743;40;20119;-66
2021/04/21 13:08:25;;;;;;;5.38;2.50;;;20.20;33.90;;;;;;3557145;40;20026;-64
2021/04/21 13:10:53;;;;;;;5.43;2.03;;;20.20;34.40;;;;;;3557519;40;20044;-70
2021/04/21 13:13:30;;;;;;;5.50;2.92;;;20.10;35.00;;;;;;3558821;40;20033;-67
2021/04/21 13:15:57;;;;;;;6.65;2.38;;;20.10;34.70;;;;;;3559172;40;20485;-64
2021/04/21 13:18:31;;;;;;;5.00;2.38;;;20.10;34.20;;;;;;3559592;40;20398;-64
2021/04/21 13:21:05;;;;;;;3.85;2.67;;;20.00;34.60;;;;;;3558232;40;20376;-64
2021/04/21 13:23:31;;;;;;;8.05;2.38;;;20.00;35.30;;;;;;3559223;40;20033;-65
2021/04/21 13:26:06;;;;;;;3.20;2.42;;;20.10;34.00;;;;;;3558465;40;20026;-64